Time;durP1;ratioP1;P1;durP2;ratioP2;P2;SDS_P1;SDS_P2;PMS_P1;PMS_P2;Temp;Humidity;BMP_temperature;BMP_pressure;BME280_temperature;BME280_humidity;BME280_pressure;Samples;Min_cycle;Max_cycle;Signal;HPM_P1;HPM_P2
2022/01/19 00:03:22;;;;;;;38.43;18.07;;;;;;;0.68;100.00;102073.69;10547515;28;20659;-66
2022/01/19 00:08:29;;;;;;;34.73;16.83;;;;;;;0.63;100.00;102087.88;10547455;28;20192;-64
2022/01/19 00:13:32;;;;;;;36.53;15.53;;;;;;;0.55;100.00;102064.44;10547571;28;20215;-66
2022/01/19 00:18:35;;;;;;;35.10;17.77;;;;;;;0.40;100.00;102053.34;10546666;28;20227;-66
2022/01/19 00:23:40;;;;;;;31.37;15.87;;;;;;;0.40;100.00;102047.41;10546613;28;20241;-64
2022/01/19 00:28:44;;;;;;;31.87;14.00;;;;;;;0.52;100.00;102028.53;10546533;28;20660;-65
2022/01/19 00:33:47;;;;;;;34.47;15.67;;;;;;;0.40;100.00;102034.63;10545975;28;20227;-66
2022/01/19 00:38:52;;;;;;;33.27;14.90;;;;;;;0.36;100.00;102015.69;10545956;28;20242;-69
2022/01/19 00:43:57;;;;;;;34.03;14.97;;;;;;;0.62;100.00;102029.94;10545995;28;20302;-66
2022/01/19 00:49:01;;;;;;;27.07;14.07;;;;;;;0.73;100.00;102018.63;10545912;28;20302;-66
2022/01/19 00:54:06;;;;;;;34.40;15.57;;;;;;;0.75;100.00;102019.59;10545444;28;20219;-65
2022/01/19 00:59:09;;;;;;;37.63;14.57;;;;;;;0.71;100.00;102030.44;10545121;28;20207;-65
2022/01/19 01:04:13;;;;;;;35.33;15.77;;;;;;;0.73;100.00;102019.50;10544965;28;20234;-69
2022/01/19 01:09:18;;;;;;;39.33;15.80;;;;;;;0.64;100.00;102023.25;10544598;28;20692;-67
2022/01/19 01:19:42;;;;;;;33.87;14.37;;;;;;;0.88;100.00;102012.69;10544206;28;20537;-68
2022/01/19 01:24:46;;;;;;;29.00;12.00;;;;;;;0.68;100.00;101994.50;10544123;28;20262;-68
2022/01/19 01:29:49;;;;;;;27.37;10.83;;;;;;;0.79;100.00;101981.53;10544119;28;20225;-66
2022/01/19 01:34:53;;;;;;;26.50;11.77;;;;;;;0.72;100.00;101958.13;10543956;28;20302;-65
2022/01/19 01:39:57;;;;;;;23.77;9.93;;;;;;;0.67;100.00;101942.56;10543787;28;20211;-68
2022/01/19 01:45:02;;;;;;;25.40;10.33;;;;;;;0.67;100.00;101944.22;10543399;28;20238;-68
2022/01/19 01:55:28;;;;;;;23.83;9.00;;;;;;;0.92;100.00;101922.63;10543308;28;20554;-67
2022/01/19 02:00:31;;;;;;;29.47;9.97;;;;;;;0.92;100.00;101924.28;10543030;28;20599;-64
2022/01/19 02:05:38;;;;;;;21.10;9.67;;;;;;;0.93;100.00;101888.59;10542751;28;20227;-63
2022/01/19 02:10:59;;;;;;;31.00;11.63;;;;;;;0.96;100.00;101880.22;10542717;28;20645;-67
2022/01/19 02:16:21;;;;;;;63.93;25.80;;;;;;;1.03;100.00;101887.41;10542663;28;20548;-66
2022/01/19 02:21:45;;;;;;;25.33;11.80;;;;;;;1.13;100.00;101875.19;10542625;28;20211;-66
2022/01/19 02:26:57;;;;;;;32.07;13.83;;;;;;;1.09;100.00;101880.94;10542260;28;20672;-67
2022/01/19 02:42:55;;;;;;;30.40;12.13;;;;;;;0.89;100.00;101860.25;10509432;28;20655;-69
2022/01/19 02:53:20;;;;;;;33.20;12.03;;;;;;;1.01;100.00;101836.22;10541934;28;20670;-66
2022/01/19 02:58:24;;;;;;;26.17;11.73;;;;;;;0.94;100.00;101813.69;10541907;28;20218;-65
2022/01/19 03:08:53;;;;;;;28.60;11.77;;;;;;;0.95;100.00;101810.34;10549660;28;20211;-67
2022/01/19 03:13:57;;;;;;;26.43;11.17;;;;;;;0.90;100.00;101796.44;10549571;28;20543;-64
2022/01/19 03:19:00;;;;;;;29.13;11.13;;;;;;;0.83;100.00;101773.94;10549428;28;20257;-66
2022/01/19 03:24:05;;;;;;;27.63;12.10;;;;;;;0.73;100.00;101752.94;10549282;28;20230;-69
2022/01/19 03:29:09;;;;;;;29.73;10.33;;;;;;;0.72;100.00;101751.19;10548882;28;20219;-66
2022/01/19 03:34:12;;;;;;;24.10;10.07;;;;;;;0.69;100.00;101741.69;10548631;28;20223;-66
2022/01/19 03:39:17;;;;;;;30.07;11.27;;;;;;;0.62;100.00;101729.41;10548540;28;20556;-65
2022/01/19 03:44:20;;;;;;;28.40;10.87;;;;;;;0.64;100.00;101726.94;10548280;28;20215;-66
2022/01/19 03:49:25;;;;;;;24.63;9.53;;;;;;;0.59;100.00;101706.25;10548165;28;20213;-65
2022/01/19 03:54:31;;;;;;;24.30;10.13;;;;;;;0.62;100.00;101705.56;10547912;28;20199;-62
2022/01/19 03:59:34;;;;;;;25.77;9.37;;;;;;;0.78;100.00;101696.19;10547730;28;20226;-65
2022/01/19 04:04:43;;;;;;;28.00;9.30;;;;;;;0.71;100.00;101698.34;10547448;28;20544;-70
2022/01/19 04:10:08;;;;;;;25.87;9.50;;;;;;;0.60;100.00;101690.16;10546958;28;20599;-66
2022/01/19 04:15:14;;;;;;;21.97;8.97;;;;;;;0.67;100.00;101679.44;10546856;28;20227;-69
2022/01/19 04:20:18;;;;;;;23.00;10.53;;;;;;;0.68;100.00;101675.19;10546707;28;20687;-67
2022/01/19 04:25:23;;;;;;;22.27;9.40;;;;;;;0.88;100.00;101679.63;10546629;28;20227;-69
2022/01/19 04:30:27;;;;;;;24.40;9.07;;;;;;;0.85;100.00;101667.56;10546415;28;20616;-68
2022/01/19 04:35:43;;;;;;;23.13;9.40;;;;;;;0.84;100.00;101649.63;10546133;28;20226;-68
2022/01/19 04:46:23;;;;;;;19.67;8.70;;;;;;;1.10;100.00;101644.09;10545629;28;20223;-67
2022/01/19 05:02:45;;;;;;;18.73;9.07;;;;;;;1.14;100.00;101610.19;10523358;28;20278;-66
2022/01/19 05:07:57;;;;;;;28.57;9.70;;;;;;;1.29;100.00;101600.72;10545093;28;20215;-64
2022/01/19 05:18:23;;;;;;;20.63;9.93;;;;;;;1.34;100.00;101580.47;10541415;28;20720;-66
2022/01/19 05:23:26;;;;;;;24.47;10.80;;;;;;;1.41;100.00;101574.81;10153327;28;10000331;-65
2022/01/19 05:28:30;;;;;;;21.97;11.10;;;;;;;1.52;100.00;101574.50;10498787;28;20298;-68
2022/01/19 05:33:34;;;;;;;27.30;9.80;;;;;;;1.58;100.00;101558.56;10498625;28;20242;-68
2022/01/19 05:38:37;;;;;;;21.53;9.73;;;;;;;1.73;100.00;101567.78;10498800;28;20216;-70
2022/01/19 05:43:42;;;;;;;29.67;10.33;;;;;;;1.74;100.00;101555.88;10498247;28;20224;-62
2022/01/19 05:48:46;;;;;;;25.40;10.47;;;;;;;1.86;100.00;101562.41;10498126;28;20216;-67
2022/01/19 05:53:49;;;;;;;22.57;10.17;;;;;;;1.94;100.00;101573.84;10498262;28;20558;-65
2022/01/19 05:58:53;;;;;;;22.60;8.70;;;;;;;2.01;100.00;101555.41;10497809;28;20222;-64
2022/01/19 06:03:56;;;;;;;21.73;8.90;;;;;;;1.93;100.00;101559.28;10497623;28;20553;-68
2022/01/19 06:09:03;;;;;;;17.70;8.80;;;;;;;2.12;100.00;101551.59;10497315;28;20235;-66
2022/01/19 06:14:07;;;;;;;58.33;30.07;;;;;;;2.13;100.00;101547.34;10497452;28;20307;-65
2022/01/19 06:19:10;;;;;;;26.93;9.50;;;;;;;2.17;100.00;101541.56;10497185;28;20274;-65
2022/01/19 06:24:14;;;;;;;15.67;7.63;;;;;;;2.18;100.00;101526.25;10455601;28;20219;-68
2022/01/19 06:29:19;;;;;;;17.13;8.00;;;;;;;2.22;100.00;101530.72;10455406;28;20677;-68
2022/01/19 06:34:22;;;;;;;13.67;7.57;;;;;;;2.25;100.00;101520.59;10457822;28;20307;-67
2022/01/19 06:39:25;;;;;;;18.50;8.90;;;;;;;2.21;100.00;101523.81;10463957;28;20235;-66
2022/01/19 06:44:30;;;;;;;15.87;7.70;;;;;;;2.31;100.00;101519.97;10463737;28;20220;-65
2022/01/19 06:49:33;;;;;;;20.37;8.47;;;;;;;2.22;100.00;101512.78;10463686;28;20217;-66
2022/01/19 06:54:36;;;;;;;18.63;9.10;;;;;;;2.24;100.00;101510.28;10463318;28;20220;-66
2022/01/19 06:59:41;;;;;;;16.50;7.90;;;;;;;2.28;100.00;101522.38;10497593;28;20222;-67
2022/01/19 07:04:49;;;;;;;19.37;7.53;;;;;;;2.47;100.00;101517.19;10504228;28;20314;-66
2022/01/19 07:09:52;;;;;;;20.23;7.50;;;;;;;2.46;100.00;101506.91;10503937;28;20230;-63
2022/01/19 07:14:57;;;;;;;20.67;7.90;;;;;;;2.38;100.00;101495.47;10504231;28;20234;-65
2022/01/19 07:20:00;;;;;;;18.30;8.43;;;;;;;2.57;100.00;101485.16;10509941;28;20223;-62
2022/01/19 07:25:03;;;;;;;38.50;15.33;;;;;;;2.60;100.00;101475.91;10545456;28;20314;-63
2022/01/19 07:30:10;;;;;;;16.90;8.67;;;;;;;2.53;100.00;101483.28;10519901;28;20730;-65
2022/01/19 07:35:14;;;;;;;17.50;8.33;;;;;;;2.49;100.00;101481.41;10503203;28;20836;-65
2022/01/19 07:40:18;;;;;;;18.47;8.10;;;;;;;2.58;100.00;101481.78;10502973;28;20212;-67
2022/01/19 07:45:22;;;;;;;18.83;7.97;;;;;;;2.59;100.00;101476.69;10501825;28;20315;-63
2022/01/19 07:50:25;;;;;;;19.20;8.80;;;;;;;2.60;100.00;101457.97;10502365;28;20180;-66
2022/01/19 07:55:29;;;;;;;16.90;7.30;;;;;;;2.80;100.00;101449.34;10502481;28;20206;-63
2022/01/19 08:00:35;;;;;;;17.37;8.50;;;;;;;2.66;100.00;101445.38;10502680;28;20218;-63
2022/01/19 08:05:38;;;;;;;20.77;8.33;;;;;;;2.66;100.00;101431.72;10501740;28;20222;-65
2022/01/19 08:10:42;;;;;;;17.77;8.57;;;;;;;2.76;100.00;101434.66;10501372;28;20204;-64
2022/01/19 08:15:47;;;;;;;19.17;8.60;;;;;;;2.73;100.00;101431.13;10501322;28;20196;-64
2022/01/19 08:20:51;;;;;;;18.20;9.37;;;;;;;2.76;100.00;101423.56;10514516;28;20231;-63
2022/01/19 08:25:54;;;;;;;22.50;9.03;;;;;;;2.84;100.00;101417.91;10542616;28;20211;-64
2022/01/19 08:30:59;;;;;;;18.57;9.63;;;;;;;2.97;100.00;101414.97;10517549;28;20553;-65
2022/01/19 08:36:03;;;;;;;23.37;9.20;;;;;;;3.09;100.00;101406.88;10501095;28;20290;-65
2022/01/19 08:41:06;;;;;;;18.70;9.30;;;;;;;2.88;100.00;101395.81;10500228;28;20208;-63
2022/01/19 08:46:10;;;;;;;20.87;9.70;;;;;;;2.90;100.00;101399.31;10500575;28;20219;-64
2022/01/19 08:51:14;;;;;;;19.97;9.20;;;;;;;2.93;100.00;101390.06;10500177;28;20256;-67
2022/01/19 08:56:17;;;;;;;19.40;9.33;;;;;;;2.89;100.00;101387.31;10499639;28;20695;-64
2022/01/19 09:01:21;;;;;;;22.30;9.77;;;;;;;2.82;100.00;101382.78;10499021;28;20303;-64
2022/01/19 09:06:25;;;;;;;20.73;10.20;;;;;;;2.89;100.00;101370.25;10499722;28;20224;-64
2022/01/19 09:11:29;;;;;;;17.53;9.47;;;;;;;2.88;100.00;101365.91;10501879;28;20208;-65
2022/01/19 09:16:33;;;;;;;21.83;9.43;;;;;;;2.90;100.00;101363.44;10502374;28;20238;-66
2022/01/19 09:21:37;;;;;;;21.77;9.90;;;;;;;3.12;100.00;101355.69;10501923;28;20220;-64
2022/01/19 09:26:40;;;;;;;17.47;9.33;;;;;;;3.18;100.00;101353.34;10501127;28;20235;-66
2022/01/19 09:31:44;;;;;;;20.67;9.20;;;;;;;3.43;100.00;101343.97;10501588;28;20291;-66
2022/01/19 09:36:49;;;;;;;23.80;10.20;;;;;;;3.25;100.00;101333.09;10500804;28;20314;-63
2022/01/19 09:41:53;;;;;;;21.13;9.27;;;;;;;3.19;100.00;101329.44;10160157;27;9999703;-62
2022/01/19 09:46:58;;;;;;;20.43;8.73;;;;;;;3.08;100.00;101308.56;10497906;28;20223;-65
2022/01/19 09:52:03;;;;;;;20.23;9.47;;;;;;;3.11;100.00;101310.34;10497089;28;20569;-64
2022/01/19 09:57:06;;;;;;;22.33;9.83;;;;;;;3.17;100.00;101295.19;10497217;28;20238;-65
2022/01/19 10:02:11;;;;;;;22.13;12.20;;;;;;;3.20;100.00;101287.59;10496956;28;20216;-65
2022/01/19 10:07:19;;;;;;;24.87;11.10;;;;;;;3.24;100.00;101284.31;10497085;28;20588;-64
2022/01/19 10:17:55;;;;;;;22.17;10.47;;;;;;;3.35;100.00;101288.09;10470917;28;20271;-64
2022/01/19 10:23:00;;;;;;;21.20;10.43;;;;;;;3.40;100.00;101269.47;10482436;28;20765;-63
2022/01/19 10:28:03;;;;;;;17.93;9.43;;;;;;;3.37;100.00;101265.94;10497095;28;20234;-67
2022/01/19 10:33:08;;;;;;;18.57;9.13;;;;;;;3.52;100.00;101264.75;10496678;28;20231;-64
2022/01/19 10:38:17;;;;;;;22.83;10.50;;;;;;;3.42;100.00;101266.94;10502774;28;20223;-63
2022/01/19 10:43:28;;;;;;;21.03;10.40;;;;;;;3.41;100.00;101252.41;10510867;28;20218;-63
2022/01/19 10:48:36;;;;;;;23.30;10.97;;;;;;;3.33;100.00;101254.69;10496502;28;20234;-64
2022/01/19 10:53:42;;;;;;;22.47;11.07;;;;;;;3.18;100.00;101240.50;10496121;28;20362;-66
2022/01/19 10:58:54;;;;;;;18.40;10.33;;;;;;;3.53;100.00;101245.09;10496642;28;20255;-64
2022/01/19 11:04:17;;;;;;;21.87;11.20;;;;;;;3.19;100.00;101229.44;10495807;28;20557;-64
2022/01/19 11:09:24;;;;;;;21.43;10.93;;;;;;;3.40;100.00;101232.66;10496419;28;20212;-61
2022/01/19 11:14:27;;;;;;;22.63;10.97;;;;;;;3.48;100.00;101215.84;10495803;28;20307;-65
2022/01/19 11:19:37;;;;;;;25.43;12.37;;;;;;;3.45;100.00;101208.06;10495955;28;20228;-62
2022/01/19 11:24:55;;;;;;;17.83;10.07;;;;;;;3.44;100.00;101207.19;10502816;28;20278;-61
2022/01/19 11:30:10;;;;;;;20.93;11.30;;;;;;;3.42;100.00;101196.00;10503227;28;20314;-64
2022/01/19 11:35:35;;;;;;;24.97;10.63;;;;;;;3.30;100.00;101185.34;10502836;28;20250;-62
2022/01/19 11:40:41;;;;;;;21.57;10.47;;;;;;;3.44;100.00;101188.34;10529284;28;20629;-62
2022/01/19 11:45:45;;;;;;;24.60;11.33;;;;;;;3.29;100.00;101175.91;10504482;28;20228;-62
2022/01/19 11:50:51;;;;;;;21.13;11.30;;;;;;;3.18;100.00;101171.25;10502718;28;20599;-63
2022/01/19 11:56:04;;;;;;;23.60;9.97;;;;;;;3.17;100.00;101149.00;10502229;28;20216;-65
2022/01/19 12:01:21;;;;;;;20.27;11.30;;;;;;;3.31;100.00;101146.03;10502290;28;20294;-65
2022/01/19 12:06:35;;;;;;;23.67;12.67;;;;;;;3.25;100.00;101139.84;10460663;28;20225;-61
2022/01/19 12:11:42;;;;;;;25.67;11.80;;;;;;;3.26;100.00;101139.03;10463875;28;20223;-63
2022/01/19 12:17:00;;;;;;;22.53;11.37;;;;;;;3.32;100.00;101118.69;10504857;28;20730;-67
2022/01/19 12:22:12;;;;;;;25.33;12.50;;;;;;;3.07;100.00;101129.03;10504360;28;20327;-68
2022/01/19 12:27:27;;;;;;;25.03;12.97;;;;;;;2.98;100.00;101105.66;10504458;28;20220;-63
2022/01/19 12:32:40;;;;;;;28.60;15.60;;;;;;;3.01;100.00;101100.59;10503323;28;20679;-63
2022/01/19 12:37:47;;;;;;;24.13;13.00;;;;;;;3.23;100.00;101087.63;10504399;28;20246;-66
2022/01/19 12:42:52;;;;;;;29.40;14.53;;;;;;;3.16;100.00;101081.44;10503318;28;20220;-62
2022/01/19 12:47:57;;;;;;;29.37;14.70;;;;;;;3.24;100.00;101079.13;10503466;28;20546;-66
2022/01/19 12:53:20;;;;;;;32.30;15.10;;;;;;;2.88;100.00;101066.00;10502890;28;20212;-65
2022/01/19 12:58:29;;;;;;;48.07;21.67;;;;;;;3.08;100.00;101064.97;10503140;28;20276;-69
2022/01/19 13:03:40;;;;;;;54.67;25.50;;;;;;;3.01;100.00;101052.78;10500694;28;20240;-62
2022/01/19 13:08:54;;;;;;;142.37;55.27;;;;;;;3.14;100.00;101048.91;10501977;28;20255;-63
2022/01/19 13:14:02;;;;;;;28.73;14.40;;;;;;;2.97;100.00;101045.81;10501986;28;20532;-68
2022/01/19 13:19:10;;;;;;;27.33;13.50;;;;;;;2.98;100.00;101036.44;10502177;28;20235;-65
2022/01/19 13:24:19;;;;;;;29.07;14.17;;;;;;;2.81;100.00;101024.78;10501580;28;20224;-65
2022/01/19 13:29:26;;;;;;;27.37;14.63;;;;;;;2.72;100.00;101033.06;10501305;28;20234;-64
2022/01/19 13:34:31;;;;;;;27.30;15.13;;;;;;;2.86;100.00;101028.34;10501363;28;20605;-63
2022/01/19 13:39:37;;;;;;;27.43;14.10;;;;;;;3.02;100.00;101022.91;10501529;28;20224;-66
2022/01/19 13:44:48;;;;;;;28.13;15.30;;;;;;;2.91;100.00;101012.31;10500232;28;20216;-62
2022/01/19 13:49:53;;;;;;;29.23;15.20;;;;;;;2.99;100.00;101015.97;10500937;28;20220;-66
2022/01/19 13:54:58;;;;;;;30.77;14.90;;;;;;;2.87;100.00;101007.00;10500819;28;20227;-64
2022/01/19 14:00:13;;;;;;;25.70;15.97;;;;;;;2.95;100.00;100992.75;10500972;28;20226;-68
2022/01/19 14:05:16;;;;;;;36.53;18.40;;;;;;;3.13;100.00;100993.28;10498917;28;20203;-66
2022/01/19 14:10:21;;;;;;;32.27;16.40;;;;;;;2.95;100.00;100998.72;10500292;28;20307;-67
2022/01/19 14:15:26;;;;;;;28.00;15.73;;;;;;;3.08;100.00;100980.34;10500264;28;20569;-64
2022/01/19 14:20:29;;;;;;;30.33;15.23;;;;;;;2.94;100.00;100981.63;10500899;28;20672;-65
2022/01/19 14:25:34;;;;;;;29.63;15.90;;;;;;;2.98;100.00;100974.91;10499878;28;20234;-63
2022/01/19 14:30:37;;;;;;;33.67;16.93;;;;;;;3.08;100.00;100958.97;10497863;28;20212;-69
2022/01/19 14:35:51;;;;;;;29.27;17.37;;;;;;;3.05;100.00;100959.75;10146755;27;10000029;-66
2022/01/19 14:41:02;;;;;;;39.60;18.73;;;;;;;2.91;100.00;100950.78;10496895;28;20666;-65
2022/01/19 14:46:10;;;;;;;35.80;18.30;;;;;;;2.91;100.00;100945.66;10496287;28;20234;-65
2022/01/19 14:51:23;;;;;;;33.00;17.97;;;;;;;2.88;100.00;100939.56;10496509;28;20345;-64
2022/01/19 14:56:29;;;;;;;32.60;17.57;;;;;;;3.00;100.00;100930.53;10500282;28;20230;-63
2022/01/19 15:01:33;;;;;;;31.53;18.93;;;;;;;3.06;100.00;100925.59;10497149;28;20311;-64
2022/01/19 15:06:38;;;;;;;34.70;19.57;;;;;;;2.97;100.00;100927.03;10502995;28;20220;-67
2022/01/19 15:11:44;;;;;;;33.80;18.77;;;;;;;2.95;100.00;100915.84;10479777;28;20221;-64
2022/01/19 15:16:48;;;;;;;39.67;18.83;;;;;;;2.83;100.00;100900.97;10483312;28;20242;-67
2022/01/19 15:21:54;;;;;;;32.87;18.87;;;;;;;2.96;100.00;100897.06;10503849;28;20291;-64
2022/01/19 15:26:59;;;;;;;41.30;20.90;;;;;;;2.95;100.00;100896.19;10502910;28;20230;-64
2022/01/19 15:32:02;;;;;;;40.53;21.00;;;;;;;2.80;100.00;100888.06;10503315;28;20226;-64
2022/01/19 15:37:05;;;;;;;38.80;20.60;;;;;;;2.85;100.00;100876.25;10510435;28;20220;-64
2022/01/19 15:42:09;;;;;;;42.50;22.40;;;;;;;2.85;100.00;100863.44;10495602;28;20225;-67
2022/01/19 15:47:14;;;;;;;43.50;22.87;;;;;;;2.80;100.00;100861.56;10481676;28;20976;-64
2022/01/19 15:52:17;;;;;;;39.60;21.63;;;;;;;2.72;100.00;100845.13;10502675;28;20299;-68
2022/01/19 15:57:22;;;;;;;32.30;19.40;;;;;;;2.73;100.00;100834.91;10501776;28;20564;-64
2022/01/19 16:02:25;;;;;;;30.70;15.90;;;;;;;2.78;100.00;100827.38;10502299;28;20232;-63
2022/01/19 16:07:30;;;;;;;32.47;17.87;;;;;;;2.62;100.00;100822.63;10497844;28;20277;-66
2022/01/19 16:12:35;;;;;;;29.87;17.03;;;;;;;2.66;100.00;100816.78;10501597;28;20306;-68
2022/01/19 16:17:38;;;;;;;39.17;17.73;;;;;;;2.70;100.00;100800.63;10500896;28;20239;-65
2022/01/19 16:28:05;;;;;;;35.77;20.40;;;;;;;2.59;100.00;100786.69;10500368;28;20311;-65
2022/01/19 16:33:08;;;;;;;34.37;18.13;;;;;;;2.43;100.00;100781.94;10501394;28;20258;-65
2022/01/19 16:38:12;;;;;;;36.27;20.10;;;;;;;2.51;100.00;100776.19;10516149;28;20234;-63
2022/01/19 16:43:17;;;;;;;41.87;22.10;;;;;;;2.38;100.00;100760.44;10500669;28;20806;-71
2022/01/19 16:48:21;;;;;;;55.03;27.80;;;;;;;2.59;100.00;100748.25;10500849;28;20555;-65
2022/01/19 16:53:27;;;;;;;40.23;17.70;;;;;;;2.55;100.00;100736.16;10500041;28;20192;-63
2022/01/19 16:58:34;;;;;;;32.87;16.80;;;;;;;2.49;100.00;100730.88;10499924;28;20192;-67
2022/01/19 17:03:39;;;;;;;40.73;22.13;;;;;;;2.38;100.00;100723.75;10498373;28;20194;-63
2022/01/19 17:08:43;;;;;;;31.20;17.47;;;;;;;2.33;100.00;100707.41;10499226;28;20234;-63
2022/01/19 17:13:57;;;;;;;37.97;19.77;;;;;;;2.29;100.00;100695.34;10499370;28;20329;-66
2022/01/19 17:19:00;;;;;;;35.17;18.83;;;;;;;2.21;100.00;100686.56;10497768;28;20238;-64
2022/01/19 17:24:04;;;;;;;39.07;18.00;;;;;;;2.22;100.00;100680.63;10496779;28;20275;-64
2022/01/19 17:29:09;;;;;;;32.77;16.20;;;;;;;2.24;100.00;100684.09;10498649;28;20216;-66
2022/01/19 17:34:12;;;;;;;31.77;16.37;;;;;;;2.18;100.00;100671.13;10503309;28;20271;-67
2022/01/19 17:39:16;;;;;;;33.27;18.27;;;;;;;2.20;100.00;100666.91;10516706;28;20200;-65
2022/01/19 17:44:21;;;;;;;31.10;16.73;;;;;;;2.21;100.00;100666.09;10498207;28;20192;-62
2022/01/19 17:49:43;;;;;;;48.30;25.80;;;;;;;2.40;100.00;100649.53;10498073;28;20245;-62
2022/01/19 17:54:46;;;;;;;31.40;16.87;;;;;;;2.24;100.00;100647.41;10497027;28;20215;-65
2022/01/19 17:59:53;;;;;;;31.90;17.47;;;;;;;2.13;100.00;100644.53;10497731;28;20263;-64
2022/01/19 18:04:56;;;;;;;32.50;17.33;;;;;;;2.21;100.00;100627.69;10497696;28;20637;-65
2022/01/19 18:10:02;;;;;;;30.63;16.97;;;;;;;2.22;100.00;100623.44;10497288;28;20212;-68
2022/01/19 18:15:07;;;;;;;30.20;17.03;;;;;;;2.22;100.00;100615.75;10497642;28;20666;-64
2022/01/19 18:20:11;;;;;;;30.03;17.50;;;;;;;2.14;100.00;100591.66;10496712;28;20311;-64
2022/01/19 18:25:14;;;;;;;29.00;15.07;;;;;;;2.09;100.00;100557.34;10496115;28;20295;-67
2022/01/19 18:30:20;;;;;;;32.53;16.17;;;;;;;1.97;100.00;100542.56;10496761;28;20895;-66
2022/01/19 18:35:23;;;;;;;30.33;16.50;;;;;;;1.93;100.00;100520.25;10497747;28;20650;-65
2022/01/19 18:40:29;;;;;;;30.60;16.27;;;;;;;1.79;100.00;100500.25;10496225;28;20234;-65
2022/01/19 18:45:34;;;;;;;38.83;18.97;;;;;;;1.67;100.00;100482.03;10497364;28;20224;-67
2022/01/19 18:50:37;;;;;;;32.27;18.67;;;;;;;1.57;100.00;100478.34;10500023;28;20302;-65
2022/01/19 18:55:41;;;;;;;34.17;19.37;;;;;;;1.52;100.00;100468.81;10499645;28;20222;-65
2022/01/19 19:00:48;;;;;;;35.57;18.07;;;;;;;1.49;100.00;100461.91;10496548;28;20219;-64
2022/01/19 19:05:52;;;;;;;32.07;17.00;;;;;;;1.45;100.00;100454.97;10499248;28;20722;-64
2022/01/19 19:11:17;;;;;;;35.03;18.13;;;;;;;1.43;100.00;100443.00;10499233;28;20220;-65
2022/01/19 19:16:21;;;;;;;32.80;18.07;;;;;;;1.35;100.00;100426.59;10499215;28;20240;-68
2022/01/19 19:21:25;;;;;;;34.23;18.63;;;;;;;1.21;100.00;100405.75;10476474;28;20229;-65
2022/01/19 19:26:28;;;;;;;36.93;18.97;;;;;;;1.15;100.00;100390.25;10457833;28;20255;-66
2022/01/19 19:31:33;;;;;;;37.93;19.57;;;;;;;1.09;100.00;100352.59;10457624;28;20243;-62
2022/01/19 19:36:37;;;;;;;44.23;18.47;;;;;;;1.06;100.00;100349.09;10457473;28;20301;-65
2022/01/19 19:41:40;;;;;;;31.27;17.37;;;;;;;1.04;100.00;100341.41;10457951;28;20365;-67
2022/01/19 19:46:45;;;;;;;37.87;19.03;;;;;;;1.02;100.00;100344.72;10464491;28;20221;-69
2022/01/19 19:51:49;;;;;;;31.63;15.47;;;;;;;1.00;100.00;100338.72;10464318;28;20229;-63
2022/01/19 19:56:53;;;;;;;33.80;16.60;;;;;;;0.97;100.00;100324.16;10464065;28;20213;-65
2022/01/19 20:01:58;;;;;;;35.23;19.20;;;;;;;0.94;100.00;100306.22;10463981;28;20223;-65
2022/01/19 20:07:01;;;;;;;36.63;18.87;;;;;;;0.88;100.00;100285.59;10464423;28;20229;-65
2022/01/19 20:12:05;;;;;;;40.30;17.87;;;;;;;0.89;100.00;100260.94;10463853;28;20566;-64
2022/01/19 20:17:13;;;;;;;37.30;16.53;;;;;;;0.91;100.00;100267.81;10463126;28;20767;-65
2022/01/19 20:22:17;;;;;;;34.03;17.70;;;;;;;0.87;100.00;100260.91;10463201;28;20227;-65
2022/01/19 20:27:20;;;;;;;35.43;18.60;;;;;;;0.87;100.00;100255.78;10460825;28;20212;-67
2022/01/19 20:32:25;;;;;;;39.93;18.97;;;;;;;0.80;100.00;100253.88;10459836;28;20237;-69
2022/01/19 20:37:28;;;;;;;36.47;17.13;;;;;;;0.77;100.00;100241.03;10459670;28;20225;-72
2022/01/19 20:42:32;;;;;;;35.23;18.70;;;;;;;0.74;100.00;100242.66;10465685;28;20247;-66
2022/01/19 20:47:37;;;;;;;43.87;19.30;;;;;;;0.72;100.00;100229.84;10502170;28;20238;-67
2022/01/19 20:52:40;;;;;;;37.67;19.50;;;;;;;0.74;100.00;100206.91;10504116;28;20299;-65
2022/01/19 20:57:44;;;;;;;38.30;18.43;;;;;;;0.69;100.00;100186.31;10503317;28;20219;-66
2022/01/19 21:02:50;;;;;;;41.23;18.90;;;;;;;0.61;100.00;100174.19;10503264;28;20240;-67
2022/01/19 21:07:53;;;;;;;38.43;19.63;;;;;;;0.54;100.00;100155.31;10502561;28;20220;-65
2022/01/19 21:13:00;;;;;;;40.67;19.30;;;;;;;0.51;100.00;100146.69;10502642;28;20216;-69
2022/01/19 21:18:04;;;;;;;38.37;19.30;;;;;;;0.51;100.00;100141.59;10502322;28;20335;-68
2022/01/19 21:23:12;;;;;;;46.87;19.43;;;;;;;0.48;100.00;100137.28;10502326;28;20184;-69
2022/01/19 21:28:16;;;;;;;38.23;18.67;;;;;;;0.49;100.00;100143.25;10482461;28;20809;-64
2022/01/19 21:33:21;;;;;;;38.30;19.07;;;;;;;0.46;100.00;100143.16;10460542;28;20658;-65
2022/01/19 21:38:24;;;;;;;39.00;18.77;;;;;;;0.55;100.00;100153.63;10460587;28;20207;-66
2022/01/19 21:43:29;;;;;;;43.43;18.73;;;;;;;0.53;100.00;100129.75;10460417;28;20696;-64
2022/01/19 21:48:35;;;;;;;35.50;17.67;;;;;;;0.52;100.00;100130.56;10460638;28;20212;-65
2022/01/19 21:53:38;;;;;;;39.53;17.83;;;;;;;0.52;100.00;100118.66;10460191;28;20271;-63
2022/01/19 21:58:41;;;;;;;37.93;17.63;;;;;;;0.53;100.00;100104.22;10470524;28;20193;-66
2022/01/19 22:03:46;;;;;;;38.10;18.50;;;;;;;0.50;100.00;100097.31;10488106;28;20192;-64
2022/01/19 22:08:53;;;;;;;33.90;16.43;;;;;;;0.51;100.00;100103.31;10500178;28;20294;-62
2022/01/19 22:13:56;;;;;;;35.63;17.80;;;;;;;0.47;100.00;100101.47;10497629;28;20188;-67
2022/01/19 22:19:00;;;;;;;32.57;15.70;;;;;;;0.57;100.00;100086.44;10497386;28;20244;-64
2022/01/19 22:24:23;;;;;;;27.87;14.57;;;;;;;0.65;100.00;100077.31;10497552;28;20357;-63
2022/01/19 22:29:28;;;;;;;33.17;15.57;;;;;;;0.72;100.00;100068.97;10146158;27;10000173;-66
2022/01/19 22:34:32;;;;;;;28.83;15.53;;;;;;;0.73;100.00;100057.03;10497020;28;20298;-66
2022/01/19 22:39:36;;;;;;;27.50;14.37;;;;;;;0.73;100.00;100055.38;10496721;28;20250;-63
2022/01/19 22:44:39;;;;;;;26.33;12.80;;;;;;;0.96;100.00;100040.56;10487721;28;20233;-66
2022/01/19 22:49:44;;;;;;;29.33;13.87;;;;;;;1.04;100.00;100036.50;10489278;28;20224;-63
2022/01/19 22:54:48;;;;;;;27.57;14.13;;;;;;;1.19;100.00;100018.97;10469313;28;20219;-63
2022/01/19 22:59:51;;;;;;;28.13;13.53;;;;;;;1.29;100.00;100015.78;10455124;28;20235;-64
2022/01/19 23:04:56;;;;;;;30.73;15.80;;;;;;;1.34;100.00;100010.75;10455255;28;20209;-66
2022/01/19 23:10:02;;;;;;;31.13;13.17;;;;;;;1.41;100.00;99997.25;10483927;28;20224;-63
2022/01/19 23:15:07;;;;;;;25.23;12.23;;;;;;;1.60;100.00;99990.00;10496505;28;20243;-66
2022/01/19 23:20:13;;;;;;;28.13;13.30;;;;;;;1.65;100.00;99977.28;10502588;28;20239;-62
2022/01/19 23:25:17;;;;;;;20.73;12.97;;;;;;;1.74;100.00;99965.56;10503976;28;20220;-64
2022/01/19 23:30:20;;;;;;;25.37;12.53;;;;;;;1.85;100.00;99956.34;10497855;28;20224;-66
2022/01/19 23:35:29;;;;;;;24.37;12.17;;;;;;;1.94;100.00;99945.41;10462348;28;20213;-64
2022/01/19 23:47:52;;;;;;;22.43;12.97;;;;;;;1.88;100.00;99929.97;10503487;28;20728;-67
2022/01/19 23:51:32;;;;;;;21.83;11.73;;;;;;;1.89;100.00;99904.41;10462695;28;20278;-63
2022/01/19 23:56:47;;;;;;;23.20;12.33;;;;;;;1.91;100.00;99889.97;10484498;28;20655;-65
